sensor_id;sensor_type;location;lat;lon;timestamp;temperature;humidity
13322;DHT22;6730;46.248;6.930;2023-02-16T00:01:32;6.90;93.90
13322;DHT22;6730;46.248;6.930;2023-02-16T00:03:58;7.10;93.40
13322;DHT22;6730;46.248;6.930;2023-02-16T00:06:25;7.30;93.40
13322;DHT22;6730;46.248;6.930;2023-02-16T00:08:53;7.60;93.30
13322;DHT22;6730;46.248;6.930;2023-02-16T00:11:32;7.20;93.60
13322;DHT22;6730;46.248;6.930;2023-02-16T00:14:17;6.90;93.80
13322;DHT22;6730;46.248;6.930;2023-02-16T00:16:43;6.70;94.10
13322;DHT22;6730;46.248;6.930;2023-02-16T00:19:41;6.60;94.20
13322;DHT22;6730;46.248;6.930;2023-02-16T00:22:07;6.50;94.30
13322;DHT22;6730;46.248;6.930;2023-02-16T00:24:33;6.50;94.20
13322;DHT22;6730;46.248;6.930;2023-02-16T00:26:59;6.60;94.00
13322;DHT22;6730;46.248;6.930;2023-02-16T00:29:34;6.50;94.20
13322;DHT22;6730;46.248;6.930;2023-02-16T00:32:03;6.50;94.40
13322;DHT22;6730;46.248;6.930;2023-02-16T00:34:40;6.50;94.50
13322;DHT22;6730;46.248;6.930;2023-02-16T00:37:09;6.60;94.40
13322;DHT22;6730;46.248;6.930;2023-02-16T00:39:36;6.50;94.30
13322;DHT22;6730;46.248;6.930;2023-02-16T00:42:04;6.40;94.40
13322;DHT22;6730;46.248;6.930;2023-02-16T00:44:45;6.40;94.60
13322;DHT22;6730;46.248;6.930;2023-02-16T00:49:41;6.20;94.70
13322;DHT22;6730;46.248;6.930;2023-02-16T00:52:38;6.20;94.60
13322;DHT22;6730;46.248;6.930;2023-02-16T00:55:10;6.20;94.40
13322;DHT22;6730;46.248;6.930;2023-02-16T00:58:23;6.20;94.40
13322;DHT22;6730;46.248;6.930;2023-02-16T01:00:55;6.30;94.30
13322;DHT22;6730;46.248;6.930;2023-02-16T01:03:25;6.30;94.30
13322;DHT22;6730;46.248;6.930;2023-02-16T01:05:51;6.20;94.30
13322;DHT22;6730;46.248;6.930;2023-02-16T01:08:37;6.40;94.10
13322;DHT22;6730;46.248;6.930;2023-02-16T01:11:21;6.50;94.10
13322;DHT22;6730;46.248;6.930;2023-02-16T01:13:49;6.40;94.30
13322;DHT22;6730;46.248;6.930;2023-02-16T01:16:20;6.40;94.50
13322;DHT22;6730;46.248;6.930;2023-02-16T01:18:47;6.20;94.70
13322;DHT22;6730;46.248;6.930;2023-02-16T01:21:13;6.20;94.70
13322;DHT22;6730;46.248;6.930;2023-02-16T01:23:39;6.10;94.90
13322;DHT22;6730;46.248;6.930;2023-02-16T01:26:10;6.10;94.90
13322;DHT22;6730;46.248;6.930;2023-02-16T01:28:36;6.20;94.80
13322;DHT22;6730;46.248;6.930;2023-02-16T01:31:02;6.20;94.70
13322;DHT22;6730;46.248;6.930;2023-02-16T01:33:28;6.10;94.80
13322;DHT22;6730;46.248;6.930;2023-02-16T01:35:56;6.20;94.70
13322;DHT22;6730;46.248;6.930;2023-02-16T01:38:25;6.20;94.60
13322;DHT22;6730;46.248;6.930;2023-02-16T01:41:08;6.10;94.70
13322;DHT22;6730;46.248;6.930;2023-02-16T01:43:54;6.00;94.80
13322;DHT22;6730;46.248;6.930;2023-02-16T01:46:28;6.00;94.90
13322;DHT22;6730;46.248;6.930;2023-02-16T01:48:57;6.00;94.90
13322;DHT22;6730;46.248;6.930;2023-02-16T01:51:32;5.90;95.00
13322;DHT22;6730;46.248;6.930;2023-02-16T01:54:10;5.80;95.10
13322;DHT22;6730;46.248;6.930;2023-02-16T01:56:46;5.70;95.10
13322;DHT22;6730;46.248;6.930;2023-02-16T02:02:01;6.10;94.70
13322;DHT22;6730;46.248;6.930;2023-02-16T02:10:08;5.90;94.70
13322;DHT22;6730;46.248;6.930;2023-02-16T02:12:45;5.80;94.70
13322;DHT22;6730;46.248;6.930;2023-02-16T02:15:14;6.10;94.50
13322;DHT22;6730;46.248;6.930;2023-02-16T02:17:41;6.30;94.20
13322;DHT22;6730;46.248;6.930;2023-02-16T02:23:37;6.60;94.00
13322;DHT22;6730;46.248;6.930;2023-02-16T02:29:13;6.00;94.40
13322;DHT22;6730;46.248;6.930;2023-02-16T02:42:38;5.80;94.80
13322;DHT22;6730;46.248;6.930;2023-02-16T02:47:42;5.80;94.60
13322;DHT22;6730;46.248;6.930;2023-02-16T02:53:03;6.20;94.20
13322;DHT22;6730;46.248;6.930;2023-02-16T02:55:31;6.10;94.20
13322;DHT22;6730;46.248;6.930;2023-02-16T02:58:17;6.20;94.10
13322;DHT22;6730;46.248;6.930;2023-02-16T03:01:03;6.40;93.80
13322;DHT22;6730;46.248;6.930;2023-02-16T03:03:32;6.50;93.70
13322;DHT22;6730;46.248;6.930;2023-02-16T03:06:14;6.60;93.50
13322;DHT22;6730;46.248;6.930;2023-02-16T03:08:45;6.10;94.10
13322;DHT22;6730;46.248;6.930;2023-02-16T03:11:16;5.70;94.60
13322;DHT22;6730;46.248;6.930;2023-02-16T03:14:09;5.50;94.80
13322;DHT22;6730;46.248;6.930;2023-02-16T03:16:41;5.50;94.70
13322;DHT22;6730;46.248;6.930;2023-02-16T03:19:10;5.50;94.70
13322;DHT22;6730;46.248;6.930;2023-02-16T03:21:56;5.60;94.60
13322;DHT22;6730;46.248;6.930;2023-02-16T03:24:41;5.60;94.40
13322;DHT22;6730;46.248;6.930;2023-02-16T03:27:37;5.60;94.50
13322;DHT22;6730;46.248;6.930;2023-02-16T03:30:22;5.70;94.50
13322;DHT22;6730;46.248;6.930;2023-02-16T03:32:49;5.70;94.40
13322;DHT22;6730;46.248;6.930;2023-02-16T03:35:15;5.80;94.50
13322;DHT22;6730;46.248;6.930;2023-02-16T03:37:42;6.00;94.10
13322;DHT22;6730;46.248;6.930;2023-02-16T03:40:12;5.80;94.10
13322;DHT22;6730;46.248;6.930;2023-02-16T03:43:02;5.80;94.20
13322;DHT22;6730;46.248;6.930;2023-02-16T03:45:29;5.90;94.00
13322;DHT22;6730;46.248;6.930;2023-02-16T03:47:55;6.00;94.10
13322;DHT22;6730;46.248;6.930;2023-02-16T03:50:21;6.00;94.00
13322;DHT22;6730;46.248;6.930;2023-02-16T03:52:47;5.90;94.00
13322;DHT22;6730;46.248;6.930;2023-02-16T03:55:13;5.90;94.20
13322;DHT22;6730;46.248;6.930;2023-02-16T03:57:39;5.80;94.20
13322;DHT22;6730;46.248;6.930;2023-02-16T04:00:06;5.80;94.10
13322;DHT22;6730;46.248;6.930;2023-02-16T04:02:31;5.90;94.30
13322;DHT22;6730;46.248;6.930;2023-02-16T04:04:57;6.00;93.70
13322;DHT22;6730;46.248;6.930;2023-02-16T04:07:23;5.90;93.70
13322;DHT22;6730;46.248;6.930;2023-02-16T04:09:49;5.90;93.90
13322;DHT22;6730;46.248;6.930;2023-02-16T04:12:14;6.00;93.80
13322;DHT22;6730;46.248;6.930;2023-02-16T04:14:58;6.00;93.50
13322;DHT22;6730;46.248;6.930;2023-02-16T04:17:24;6.00;93.60
13322;DHT22;6730;46.248;6.930;2023-02-16T04:19:50;6.20;93.30
13322;DHT22;6730;46.248;6.930;2023-02-16T04:22:15;6.40;93.40
13322;DHT22;6730;46.248;6.930;2023-02-16T04:24:41;6.00;93.60
13322;DHT22;6730;46.248;6.930;2023-02-16T04:27:07;5.90;94.00
13322;DHT22;6730;46.248;6.930;2023-02-16T04:29:33;5.80;93.90
13322;DHT22;6730;46.248;6.930;2023-02-16T04:31:58;5.80;94.00
13322;DHT22;6730;46.248;6.930;2023-02-16T04:34:24;6.00;93.80
13322;DHT22;6730;46.248;6.930;2023-02-16T04:36:49;6.20;93.50
13322;DHT22;6730;46.248;6.930;2023-02-16T04:39:15;6.20;93.40
13322;DHT22;6730;46.248;6.930;2023-02-16T04:41:41;6.10;93.40
13322;DHT22;6730;46.248;6.930;2023-02-16T04:44:06;6.10;93.50
13322;DHT22;6730;46.248;6.930;2023-02-16T04:46:32;6.30;93.20
13322;DHT22;6730;46.248;6.930;2023-02-16T04:48:58;6.30;93.10
13322;DHT22;6730;46.248;6.930;2023-02-16T04:51:23;6.50;93.20
13322;DHT22;6730;46.248;6.930;2023-02-16T04:53:49;6.30;93.10
13322;DHT22;6730;46.248;6.930;2023-02-16T04:56:15;6.20;93.20
13322;DHT22;6730;46.248;6.930;2023-02-16T04:58:41;6.20;93.30
13322;DHT22;6730;46.248;6.930;2023-02-16T05:01:07;6.00;93.70
13322;DHT22;6730;46.248;6.930;2023-02-16T05:03:32;5.80;93.90
13322;DHT22;6730;46.248;6.930;2023-02-16T05:05:58;5.70;94.00
13322;DHT22;6730;46.248;6.930;2023-02-16T05:08:24;5.70;94.10
13322;DHT22;6730;46.248;6.930;2023-02-16T05:10:49;5.80;94.00
13322;DHT22;6730;46.248;6.930;2023-02-16T05:13:35;5.80;94.10
13322;DHT22;6730;46.248;6.930;2023-02-16T05:16:21;5.70;94.40
13322;DHT22;6730;46.248;6.930;2023-02-16T05:18:47;6.00;93.90
13322;DHT22;6730;46.248;6.930;2023-02-16T05:21:12;6.10;93.70
13322;DHT22;6730;46.248;6.930;2023-02-16T05:23:57;6.00;93.70
13322;DHT22;6730;46.248;6.930;2023-02-16T05:26:23;5.60;94.20
13322;DHT22;6730;46.248;6.930;2023-02-16T05:28:49;5.60;94.40
13322;DHT22;6730;46.248;6.930;2023-02-16T05:31:14;5.70;94.20
13322;DHT22;6730;46.248;6.930;2023-02-16T05:33:40;6.00;93.90
13322;DHT22;6730;46.248;6.930;2023-02-16T05:36:06;6.20;93.70
13322;DHT22;6730;46.248;6.930;2023-02-16T05:38:31;6.40;93.40
13322;DHT22;6730;46.248;6.930;2023-02-16T05:41:00;6.10;93.60
13322;DHT22;6730;46.248;6.930;2023-02-16T05:43:26;6.10;93.70
13322;DHT22;6730;46.248;6.930;2023-02-16T05:45:58;6.10;93.90
13322;DHT22;6730;46.248;6.930;2023-02-16T05:48:25;5.90;94.00
13322;DHT22;6730;46.248;6.930;2023-02-16T05:50:53;5.80;94.30
13322;DHT22;6730;46.248;6.930;2023-02-16T05:53:19;6.00;94.00
13322;DHT22;6730;46.248;6.930;2023-02-16T05:55:45;6.00;93.70
13322;DHT22;6730;46.248;6.930;2023-02-16T05:58:10;5.90;93.70
13322;DHT22;6730;46.248;6.930;2023-02-16T06:00:36;5.60;94.20
13322;DHT22;6730;46.248;6.930;2023-02-16T06:03:02;5.50;94.30
13322;DHT22;6730;46.248;6.930;2023-02-16T06:05:28;5.60;94.30
13322;DHT22;6730;46.248;6.930;2023-02-16T06:07:54;5.70;94.00
13322;DHT22;6730;46.248;6.930;2023-02-16T06:10:19;5.40;94.40
13322;DHT22;6730;46.248;6.930;2023-02-16T06:12:45;5.20;94.70
13322;DHT22;6730;46.248;6.930;2023-02-16T06:15:11;5.20;94.70
13322;DHT22;6730;46.248;6.930;2023-02-16T06:17:36;5.30;94.50
13322;DHT22;6730;46.248;6.930;2023-02-16T06:20:03;5.40;94.50
13322;DHT22;6730;46.248;6.930;2023-02-16T06:22:29;5.40;94.20
13322;DHT22;6730;46.248;6.930;2023-02-16T06:24:54;5.30;94.60
13322;DHT22;6730;46.248;6.930;2023-02-16T06:27:20;5.00;94.90
13322;DHT22;6730;46.248;6.930;2023-02-16T06:29:46;4.80;95.00
13322;DHT22;6730;46.248;6.930;2023-02-16T06:32:11;4.80;95.00
13322;DHT22;6730;46.248;6.930;2023-02-16T06:34:37;4.80;95.00
13322;DHT22;6730;46.248;6.930;2023-02-16T06:37:02;4.80;95.10
13322;DHT22;6730;46.248;6.930;2023-02-16T06:39:28;4.70;95.10
13322;DHT22;6730;46.248;6.930;2023-02-16T06:41:54;4.80;95.00
13322;DHT22;6730;46.248;6.930;2023-02-16T06:44:20;4.80;94.90
13322;DHT22;6730;46.248;6.930;2023-02-16T06:46:46;4.90;94.90
13322;DHT22;6730;46.248;6.930;2023-02-16T06:49:17;5.20;94.80
13322;DHT22;6730;46.248;6.930;2023-02-16T06:51:44;5.20;95.00
13322;DHT22;6730;46.248;6.930;2023-02-16T06:54:10;4.90;95.10
13322;DHT22;6730;46.248;6.930;2023-02-16T06:56:36;4.80;95.40
13322;DHT22;6730;46.248;6.930;2023-02-16T06:59:02;4.90;95.50
13322;DHT22;6730;46.248;6.930;2023-02-16T07:01:28;5.00;95.10
13322;DHT22;6730;46.248;6.930;2023-02-16T07:03:55;5.10;95.10
13322;DHT22;6730;46.248;6.930;2023-02-16T07:06:24;5.10;94.80
13322;DHT22;6730;46.248;6.930;2023-02-16T07:08:50;5.40;94.30
13322;DHT22;6730;46.248;6.930;2023-02-16T07:11:16;5.60;94.10
13322;DHT22;6730;46.248;6.930;2023-02-16T07:13:42;5.70;94.10
13322;DHT22;6730;46.248;6.930;2023-02-16T07:16:08;5.70;94.00
13322;DHT22;6730;46.248;6.930;2023-02-16T07:18:35;5.60;93.90
13322;DHT22;6730;46.248;6.930;2023-02-16T07:21:01;5.50;94.00
13322;DHT22;6730;46.248;6.930;2023-02-16T07:23:26;5.40;94.10
13322;DHT22;6730;46.248;6.930;2023-02-16T07:25:52;5.40;94.20
13322;DHT22;6730;46.248;6.930;2023-02-16T07:28:17;5.50;94.20
13322;DHT22;6730;46.248;6.930;2023-02-16T07:30:43;5.30;94.10
13322;DHT22;6730;46.248;6.930;2023-02-16T07:33:09;5.20;94.30
13322;DHT22;6730;46.248;6.930;2023-02-16T07:35:36;5.10;94.60
13322;DHT22;6730;46.248;6.930;2023-02-16T07:38:03;5.00;94.70
13322;DHT22;6730;46.248;6.930;2023-02-16T07:40:29;5.00;94.70
13322;DHT22;6730;46.248;6.930;2023-02-16T07:42:58;5.10;94.80
13322;DHT22;6730;46.248;6.930;2023-02-16T07:45:25;5.30;95.00
13322;DHT22;6730;46.248;6.930;2023-02-16T07:47:50;5.60;94.20
13322;DHT22;6730;46.248;6.930;2023-02-16T07:50:16;6.00;96.10
13322;DHT22;6730;46.248;6.930;2023-02-16T07:52:42;7.10;97.30
13322;DHT22;6730;46.248;6.930;2023-02-16T07:55:08;8.10;94.00
13322;DHT22;6730;46.248;6.930;2023-02-16T07:57:34;9.00;93.20
13322;DHT22;6730;46.248;6.930;2023-02-16T08:00:03;10.30;92.50
13322;DHT22;6730;46.248;6.930;2023-02-16T08:02:29;11.00;91.90
13322;DHT22;6730;46.248;6.930;2023-02-16T08:04:55;11.50;90.70
13322;DHT22;6730;46.248;6.930;2023-02-16T08:07:21;12.10;89.00
13322;DHT22;6730;46.248;6.930;2023-02-16T08:09:46;12.80;90.40
13322;DHT22;6730;46.248;6.930;2023-02-16T08:12:13;13.20;87.10
13322;DHT22;6730;46.248;6.930;2023-02-16T08:14:39;13.70;85.50
13322;DHT22;6730;46.248;6.930;2023-02-16T08:17:06;13.90;83.90
13322;DHT22;6730;46.248;6.930;2023-02-16T08:19:32;14.30;86.80
13322;DHT22;6730;46.248;6.930;2023-02-16T08:21:59;14.90;86.30
13322;DHT22;6730;46.248;6.930;2023-02-16T08:24:27;15.60;82.90
13322;DHT22;6730;46.248;6.930;2023-02-16T08:26:53;16.00;84.70
13322;DHT22;6730;46.248;6.930;2023-02-16T08:29:23;16.10;80.20
13322;DHT22;6730;46.248;6.930;2023-02-16T08:31:49;15.90;80.00
13322;DHT22;6730;46.248;6.930;2023-02-16T08:34:16;14.90;83.90
13322;DHT22;6730;46.248;6.930;2023-02-16T08:36:44;15.00;85.00
13322;DHT22;6730;46.248;6.930;2023-02-16T08:39:17;15.30;85.00
13322;DHT22;6730;46.248;6.930;2023-02-16T08:41:45;16.10;84.00
13322;DHT22;6730;46.248;6.930;2023-02-16T08:44:12;17.00;79.70
13322;DHT22;6730;46.248;6.930;2023-02-16T08:46:41;16.80;80.90
13322;DHT22;6730;46.248;6.930;2023-02-16T08:49:08;16.50;79.60
13322;DHT22;6730;46.248;6.930;2023-02-16T08:51:37;15.00;84.60
13322;DHT22;6730;46.248;6.930;2023-02-16T08:54:05;14.10;80.90
13322;DHT22;6730;46.248;6.930;2023-02-16T08:56:32;13.90;83.30
13322;DHT22;6730;46.248;6.930;2023-02-16T08:58:59;13.50;81.50
13322;DHT22;6730;46.248;6.930;2023-02-16T09:01:25;12.60;84.30
13322;DHT22;6730;46.248;6.930;2023-02-16T09:03:51;12.90;84.50
13322;DHT22;6730;46.248;6.930;2023-02-16T09:06:18;13.60;82.80
13322;DHT22;6730;46.248;6.930;2023-02-16T09:08:56;13.60;85.10
13322;DHT22;6730;46.248;6.930;2023-02-16T09:11:23;13.30;85.10
13322;DHT22;6730;46.248;6.930;2023-02-16T09:13:49;13.80;84.80
13322;DHT22;6730;46.248;6.930;2023-02-16T09:16:18;14.60;83.40
13322;DHT22;6730;46.248;6.930;2023-02-16T09:18:44;15.10;82.80
13322;DHT22;6730;46.248;6.930;2023-02-16T09:21:22;15.30;82.10
13322;DHT22;6730;46.248;6.930;2023-02-16T09:23:49;15.20;81.80
13322;DHT22;6730;46.248;6.930;2023-02-16T09:26:17;15.10;81.30
13322;DHT22;6730;46.248;6.930;2023-02-16T09:28:44;15.20;80.50
13322;DHT22;6730;46.248;6.930;2023-02-16T09:31:15;15.90;79.10
13322;DHT22;6730;46.248;6.930;2023-02-16T09:33:44;15.30;80.00
13322;DHT22;6730;46.248;6.930;2023-02-16T09:36:11;15.10;82.90
13322;DHT22;6730;46.248;6.930;2023-02-16T09:38:38;15.90;81.90
13322;DHT22;6730;46.248;6.930;2023-02-16T09:46:29;14.70;82.50
13322;DHT22;6730;46.248;6.930;2023-02-16T09:48:55;14.10;79.30
13322;DHT22;6730;46.248;6.930;2023-02-16T09:51:30;14.30;81.30
13322;DHT22;6730;46.248;6.930;2023-02-16T10:02:42;14.20;85.60
13322;DHT22;6730;46.248;6.930;2023-02-16T10:05:30;14.90;82.40
13322;DHT22;6730;46.248;6.930;2023-02-16T10:08:06;15.00;80.40
13322;DHT22;6730;46.248;6.930;2023-02-16T10:13:26;14.10;83.50
13322;DHT22;6730;46.248;6.930;2023-02-16T10:15:57;14.00;83.50
13322;DHT22;6730;46.248;6.930;2023-02-16T10:18:33;14.60;84.80
13322;DHT22;6730;46.248;6.930;2023-02-16T10:21:03;15.10;83.50
13322;DHT22;6730;46.248;6.930;2023-02-16T10:23:45;15.90;82.90
13322;DHT22;6730;46.248;6.930;2023-02-16T10:28:50;14.50;82.10
13322;DHT22;6730;46.248;6.930;2023-02-16T10:31:44;14.00;82.50
13322;DHT22;6730;46.248;6.930;2023-02-16T10:34:46;14.40;82.60
13322;DHT22;6730;46.248;6.930;2023-02-16T10:42:40;15.20;81.90
13322;DHT22;6730;46.248;6.930;2023-02-16T10:45:19;15.40;82.20
13322;DHT22;6730;46.248;6.930;2023-02-16T10:47:46;15.70;81.60
13322;DHT22;6730;46.248;6.930;2023-02-16T10:53:20;14.50;84.30
13322;DHT22;6730;46.248;6.930;2023-02-16T10:55:46;14.20;85.80
13322;DHT22;6730;46.248;6.930;2023-02-16T10:58:18;14.50;83.70
13322;DHT22;6730;46.248;6.930;2023-02-16T11:03:24;14.10;84.70
13322;DHT22;6730;46.248;6.930;2023-02-16T11:05:53;14.30;84.10
13322;DHT22;6730;46.248;6.930;2023-02-16T11:08:19;14.00;84.10
13322;DHT22;6730;46.248;6.930;2023-02-16T11:10:52;13.90;86.60
13322;DHT22;6730;46.248;6.930;2023-02-16T11:13:34;14.60;85.00
13322;DHT22;6730;46.248;6.930;2023-02-16T11:16:10;13.70;84.90
13322;DHT22;6730;46.248;6.930;2023-02-16T11:18:45;13.90;85.10
13322;DHT22;6730;46.248;6.930;2023-02-16T11:21:11;14.10;84.30
13322;DHT22;6730;46.248;6.930;2023-02-16T11:23:39;13.80;86.00
13322;DHT22;6730;46.248;6.930;2023-02-16T11:26:21;13.30;85.70
13322;DHT22;6730;46.248;6.930;2023-02-16T11:28:49;13.80;88.20
13322;DHT22;6730;46.248;6.930;2023-02-16T11:31:32;14.30;87.40
13322;DHT22;6730;46.248;6.930;2023-02-16T11:34:05;13.80;85.50
13322;DHT22;6730;46.248;6.930;2023-02-16T11:36:42;12.90;85.60
13322;DHT22;6730;46.248;6.930;2023-02-16T11:39:25;13.30;87.40
13322;DHT22;6730;46.248;6.930;2023-02-16T11:42:16;13.40;86.30
13322;DHT22;6730;46.248;6.930;2023-02-16T11:44:51;13.60;87.90
13322;DHT22;6730;46.248;6.930;2023-02-16T11:47:27;14.30;82.80
13322;DHT22;6730;46.248;6.930;2023-02-16T11:52:44;14.60;84.30
13322;DHT22;6730;46.248;6.930;2023-02-16T11:55:29;14.50;84.80
13322;DHT22;6730;46.248;6.930;2023-02-16T12:09:16;13.70;87.60
13322;DHT22;6730;46.248;6.930;2023-02-16T12:12:05;13.70;86.50
13322;DHT22;6730;46.248;6.930;2023-02-16T12:15:12;13.40;85.90
13322;DHT22;6730;46.248;6.930;2023-02-16T12:29:17;12.30;87.10
13322;DHT22;6730;46.248;6.930;2023-02-16T12:37:48;11.50;85.50
13322;DHT22;6730;46.248;6.930;2023-02-16T12:45:42;12.10;87.20
13322;DHT22;6730;46.248;6.930;2023-02-16T12:50:51;12.10;88.50
13322;DHT22;6730;46.248;6.930;2023-02-16T12:53:55;11.60;87.60
13322;DHT22;6730;46.248;6.930;2023-02-16T12:56:25;11.60;90.10
13322;DHT22;6730;46.248;6.930;2023-02-16T12:59:02;11.70;90.00
13322;DHT22;6730;46.248;6.930;2023-02-16T13:01:32;11.80;90.50
13322;DHT22;6730;46.248;6.930;2023-02-16T13:07:04;11.30;91.20
13322;DHT22;6730;46.248;6.930;2023-02-16T13:09:40;11.10;91.40
13322;DHT22;6730;46.248;6.930;2023-02-16T13:12:38;11.10;91.70
13322;DHT22;6730;46.248;6.930;2023-02-16T13:15:11;11.10;92.30
13322;DHT22;6730;46.248;6.930;2023-02-16T13:17:59;11.20;91.50
13322;DHT22;6730;46.248;6.930;2023-02-16T13:20:27;11.50;91.60
13322;DHT22;6730;46.248;6.930;2023-02-16T13:25:49;11.60;91.30
13322;DHT22;6730;46.248;6.930;2023-02-16T13:39:33;11.10;94.20
13322;DHT22;6730;46.248;6.930;2023-02-16T13:45:01;10.80;94.30
13322;DHT22;6730;46.248;6.930;2023-02-16T13:47:37;11.00;94.30
13322;DHT22;6730;46.248;6.930;2023-02-16T13:50:06;10.90;95.00
13322;DHT22;6730;46.248;6.930;2023-02-16T13:52:40;10.70;94.90
13322;DHT22;6730;46.248;6.930;2023-02-16T13:55:25;10.50;95.30
13322;DHT22;6730;46.248;6.930;2023-02-16T14:00:31;10.40;95.10
13322;DHT22;6730;46.248;6.930;2023-02-16T14:03:00;10.20;96.00
13322;DHT22;6730;46.248;6.930;2023-02-16T14:05:29;10.30;96.40
13322;DHT22;6730;46.248;6.930;2023-02-16T14:08:25;10.20;96.40
13322;DHT22;6730;46.248;6.930;2023-02-16T14:11:16;10.20;97.10
13322;DHT22;6730;46.248;6.930;2023-02-16T14:13:45;10.10;96.60
13322;DHT22;6730;46.248;6.930;2023-02-16T14:16:26;9.90;97.40
13322;DHT22;6730;46.248;6.930;2023-02-16T14:19:03;10.00;97.20
13322;DHT22;6730;46.248;6.930;2023-02-16T14:21:39;10.00;97.00
13322;DHT22;6730;46.248;6.930;2023-02-16T14:24:20;10.00;97.20
13322;DHT22;6730;46.248;6.930;2023-02-16T14:29:30;10.30;96.80
13322;DHT22;6730;46.248;6.930;2023-02-16T14:32:03;10.20;96.80
13322;DHT22;6730;46.248;6.930;2023-02-16T14:34:37;10.30;96.80
13322;DHT22;6730;46.248;6.930;2023-02-16T14:39:48;10.40;96.80
13322;DHT22;6730;46.248;6.930;2023-02-16T14:42:17;10.30;96.70
13322;DHT22;6730;46.248;6.930;2023-02-16T14:48:05;10.60;96.30
13322;DHT22;6730;46.248;6.930;2023-02-16T14:56:37;11.00;95.90
13322;DHT22;6730;46.248;6.930;2023-02-16T15:01:57;10.10;96.80
13322;DHT22;6730;46.248;6.930;2023-02-16T15:04:31;9.90;97.00
13322;DHT22;6730;46.248;6.930;2023-02-16T15:07:03;10.00;96.70
13322;DHT22;6730;46.248;6.930;2023-02-16T15:09:33;10.20;96.90
13322;DHT22;6730;46.248;6.930;2023-02-16T15:12:04;10.80;96.00
13322;DHT22;6730;46.248;6.930;2023-02-16T15:14:52;11.00;95.70
13322;DHT22;6730;46.248;6.930;2023-02-16T15:22:54;12.00;93.60
13322;DHT22;6730;46.248;6.930;2023-02-16T15:25:38;12.00;93.40
13322;DHT22;6730;46.248;6.930;2023-02-16T15:28:18;12.10;92.60
13322;DHT22;6730;46.248;6.930;2023-02-16T15:30:48;12.00;92.60
13322;DHT22;6730;46.248;6.930;2023-02-16T15:36:02;11.30;94.10
13322;DHT22;6730;46.248;6.930;2023-02-16T15:38:31;11.50;93.80
13322;DHT22;6730;46.248;6.930;2023-02-16T15:41:06;11.50;93.40
13322;DHT22;6730;46.248;6.930;2023-02-16T15:46:06;11.30;93.40
13322;DHT22;6730;46.248;6.930;2023-02-16T15:48:38;11.40;92.40
13322;DHT22;6730;46.248;6.930;2023-02-16T15:51:12;11.50;91.20
13322;DHT22;6730;46.248;6.930;2023-02-16T15:53:52;11.70;90.50
13322;DHT22;6730;46.248;6.930;2023-02-16T15:56:26;11.70;89.40
13322;DHT22;6730;46.248;6.930;2023-02-16T15:58:57;11.90;87.40
13322;DHT22;6730;46.248;6.930;2023-02-16T16:01:34;11.60;88.40
13322;DHT22;6730;46.248;6.930;2023-02-16T16:04:19;11.40;87.90
13322;DHT22;6730;46.248;6.930;2023-02-16T16:06:47;11.10;87.50
13322;DHT22;6730;46.248;6.930;2023-02-16T16:09:31;10.90;87.60
13322;DHT22;6730;46.248;6.930;2023-02-16T16:12:00;10.90;87.30
13322;DHT22;6730;46.248;6.930;2023-02-16T16:14:27;10.70;87.30
13322;DHT22;6730;46.248;6.930;2023-02-16T16:16:54;10.80;87.10
13322;DHT22;6730;46.248;6.930;2023-02-16T16:19:24;10.70;88.00
13322;DHT22;6730;46.248;6.930;2023-02-16T16:21:55;10.70;87.70
13322;DHT22;6730;46.248;6.930;2023-02-16T16:24:36;11.00;87.60
13322;DHT22;6730;46.248;6.930;2023-02-16T16:27:08;11.20;87.90
13322;DHT22;6730;46.248;6.930;2023-02-16T16:32:20;11.30;87.60
13322;DHT22;6730;46.248;6.930;2023-02-16T16:34:47;11.20;87.60
13322;DHT22;6730;46.248;6.930;2023-02-16T16:37:32;11.10;85.70
13322;DHT22;6730;46.248;6.930;2023-02-16T16:48:26;11.00;86.20
13322;DHT22;6730;46.248;6.930;2023-02-16T16:51:18;11.00;86.20
13322;DHT22;6730;46.248;6.930;2023-02-16T16:54:02;11.10;86.40
13322;DHT22;6730;46.248;6.930;2023-02-16T16:56:36;11.00;86.30
13322;DHT22;6730;46.248;6.930;2023-02-16T16:59:02;11.00;85.70
13322;DHT22;6730;46.248;6.930;2023-02-16T17:01:29;10.90;85.60
13322;DHT22;6730;46.248;6.930;2023-02-16T17:03:55;10.80;85.50
13322;DHT22;6730;46.248;6.930;2023-02-16T17:06:21;10.80;84.70
13322;DHT22;6730;46.248;6.930;2023-02-16T17:08:47;10.70;84.60
13322;DHT22;6730;46.248;6.930;2023-02-16T17:13:47;10.50;85.00
13322;DHT22;6730;46.248;6.930;2023-02-16T17:16:18;10.30;85.60
13322;DHT22;6730;46.248;6.930;2023-02-16T17:18:45;10.30;86.00
13322;DHT22;6730;46.248;6.930;2023-02-16T17:21:14;10.20;85.40
13322;DHT22;6730;46.248;6.930;2023-02-16T17:23:40;10.30;85.60
13322;DHT22;6730;46.248;6.930;2023-02-16T17:26:06;10.10;85.70
13322;DHT22;6730;46.248;6.930;2023-02-16T17:28:32;9.80;86.70
13322;DHT22;6730;46.248;6.930;2023-02-16T17:31:05;9.50;87.70
13322;DHT22;6730;46.248;6.930;2023-02-16T17:33:31;9.30;87.00
13322;DHT22;6730;46.248;6.930;2023-02-16T17:35:57;9.20;86.80
13322;DHT22;6730;46.248;6.930;2023-02-16T17:38:23;9.30;87.50
13322;DHT22;6730;46.248;6.930;2023-02-16T17:40:53;9.50;88.20
13322;DHT22;6730;46.248;6.930;2023-02-16T17:43:20;9.50;87.70
13322;DHT22;6730;46.248;6.930;2023-02-16T17:45:46;9.60;86.50
13322;DHT22;6730;46.248;6.930;2023-02-16T17:48:17;9.50;87.90
13322;DHT22;6730;46.248;6.930;2023-02-16T17:50:43;9.50;87.50
13322;DHT22;6730;46.248;6.930;2023-02-16T17:53:11;9.30;88.00
13322;DHT22;6730;46.248;6.930;2023-02-16T17:55:37;9.10;88.20
13322;DHT22;6730;46.248;6.930;2023-02-16T17:58:02;9.20;88.10
13322;DHT22;6730;46.248;6.930;2023-02-16T18:00:28;9.00;87.90
13322;DHT22;6730;46.248;6.930;2023-02-16T18:02:54;9.00;87.90
13322;DHT22;6730;46.248;6.930;2023-02-16T18:05:19;9.00;87.70
13322;DHT22;6730;46.248;6.930;2023-02-16T18:07:45;8.80;87.30
13322;DHT22;6730;46.248;6.930;2023-02-16T18:13:02;8.80;87.40
13322;DHT22;6730;46.248;6.930;2023-02-16T18:15:28;8.60;87.50
13322;DHT22;6730;46.248;6.930;2023-02-16T18:17:54;8.60;88.20
13322;DHT22;6730;46.248;6.930;2023-02-16T18:20:20;8.80;88.00
13322;DHT22;6730;46.248;6.930;2023-02-16T18:22:46;8.80;87.50
13322;DHT22;6730;46.248;6.930;2023-02-16T18:25:12;8.90;87.50
13322;DHT22;6730;46.248;6.930;2023-02-16T18:27:37;8.90;87.00
13322;DHT22;6730;46.248;6.930;2023-02-16T18:30:03;8.80;87.00
13322;DHT22;6730;46.248;6.930;2023-02-16T18:32:30;8.70;86.10
13322;DHT22;6730;46.248;6.930;2023-02-16T18:34:56;8.50;86.10
13322;DHT22;6730;46.248;6.930;2023-02-16T18:37:22;8.40;85.80
13322;DHT22;6730;46.248;6.930;2023-02-16T18:39:49;8.30;85.50
13322;DHT22;6730;46.248;6.930;2023-02-16T18:42:15;8.30;85.50
13322;DHT22;6730;46.248;6.930;2023-02-16T18:44:41;8.20;85.10
13322;DHT22;6730;46.248;6.930;2023-02-16T18:47:08;8.20;85.30
13322;DHT22;6730;46.248;6.930;2023-02-16T18:49:33;8.20;85.70
13322;DHT22;6730;46.248;6.930;2023-02-16T18:51:59;8.20;86.00
13322;DHT22;6730;46.248;6.930;2023-02-16T18:54:25;8.20;85.90
13322;DHT22;6730;46.248;6.930;2023-02-16T18:56:54;8.20;86.20
13322;DHT22;6730;46.248;6.930;2023-02-16T18:59:19;8.20;86.40
13322;DHT22;6730;46.248;6.930;2023-02-16T19:01:45;8.20;86.50
13322;DHT22;6730;46.248;6.930;2023-02-16T19:04:10;8.20;87.10
13322;DHT22;6730;46.248;6.930;2023-02-16T19:06:37;8.20;86.70
13322;DHT22;6730;46.248;6.930;2023-02-16T19:09:03;8.20;86.70